Nrc Liberty — WDB4340 — position and weather

sailwx.info

Track history (hours):
 
Tides and Currents Weather Stations Pressure Air Temp Water Temp Dewpoint Dewpoint Depression Visibility Wind Speed Wind Dir Waves Ship Positions

Nrc Liberty

Owner: National Response Corporation, The Woodlands, TX. More information available from US FCC via Universal Licensing System and Coast Guard Vessel Documentation Center.

Last reported at 2017-Dec-11 00:13 UTC. Time now 2017-Dec-11 04:15 UTC.
Position N 25°21' W 080°07'.

Length 37 m; draft 4 m.

Type: Pollution control. MMSI: 338056000.

Date/timePositionNaut miles runAvg speedWind from/ knotsBaromVisibWave heightAir tempDewpointWater temp
2017-Dec-11 00:13N 25°21' W 080°07'2 7.3
2017-Dec-11 00:00N 25°23' W 080°06'4 7.7
2017-Dec-10 23:30N 25°27' W 080°06'4 7.7
2017-Dec-10 22:59N 25°30' W 080°05'5 9.3
2017-Dec-10 22:30N 25°35' W 080°05'5 9.7
2017-Dec-10 22:00N 25°40' W 080°05'5 9.6
2017-Dec-10 21:30N 25°45' W 080°06'3 6.5
2017-Dec-10 21:00N 25°46' W 080°09'2 4.1
2017-Dec-10 20:30N 25°47' W 080°11'0 0.0
2017-Dec-10 19:54N 25°47' W 080°11'0 0.0
2017-Dec-10 19:30N 25°47' W 080°11'0 0.0
2017-Dec-10 19:00N 25°47' W 080°11'0 0.0
2017-Dec-10 18:30N 25°47' W 080°11'0 0.0
2017-Dec-10 17:57N 25°47' W 080°11'0 0.0
2017-Dec-10 17:27N 25°47' W 080°11'0 0.0
2017-Dec-10 17:00N 25°47' W 080°11'0 0.0
2017-Dec-10 16:30N 25°47' W 080°11'0 0.0
2017-Dec-10 16:00N 25°47' W 080°11'0 0.0
2017-Dec-10 15:30N 25°47' W 080°11'0 0.0
2017-Dec-10 15:00N 25°47' W 080°11'0 0.0
2017-Dec-10 14:30N 25°47' W 080°11'0 0.0
2017-Dec-10 13:54N 25°47' W 080°11'0 0.0
2017-Dec-10 13:30N 25°47' W 080°11'0 0.0
2017-Dec-10 13:00N 25°47' W 080°11'0 0.0
2017-Dec-10 12:30N 25°47' W 080°11'0 0.0
2017-Dec-10 11:54N 25°47' W 080°11'0 0.0
2017-Dec-10 11:24N 25°47' W 080°11'0 0.0
2017-Dec-10 11:00N 25°47' W 080°11'0 0.0
2017-Dec-10 10:30N 25°47' W 080°11'0 0.0
2017-Dec-10 10:00N 25°47' W 080°11'0 0.0
2017-Dec-10 09:30N 25°47' W 080°11'0 0.0
2017-Dec-10 09:00N 25°47' W 080°11'0 0.0
2017-Dec-10 08:30N 25°47' W 080°11'0 0.0
2017-Dec-10 08:00N 25°47' W 080°11'0 0.0
2017-Dec-10 07:30N 25°47' W 080°11'0 0.0
2017-Dec-10 07:00N 25°47' W 080°11'0 0.0
2017-Dec-10 06:30N 25°47' W 080°11'0 0.0
2017-Dec-10 06:00N 25°47' W 080°11'0 0.0
2017-Dec-10 05:30N 25°47' W 080°11'0 0.0
2017-Dec-10 05:00N 25°47' W 080°11'0 0.0
2017-Dec-10 04:30N 25°47' W 080°11'0 0.0
2017-Dec-10 04:00N 25°47' W 080°11'0 0.0
2017-Dec-10 03:30N 25°47' W 080°11'0 0.0
2017-Dec-10 02:57N 25°47' W 080°11'0 0.0
2017-Dec-10 02:24N 25°47' W 080°11'0 0.0
2017-Dec-10 02:00N 25°47' W 080°11'0 0.0
2017-Dec-10 01:30N 25°47' W 080°11'0 0.0
2017-Dec-10 01:00N 25°47' W 080°11'0 0.0
2017-Dec-10 00:27N 25°47' W 080°11'0 0.0
2017-Dec-10 00:00N 25°47' W 080°11'0 0.0
2017-Dec-09 23:30N 25°47' W 080°11'0 0.0
2017-Dec-09 22:57N 25°47' W 080°11'0 0.0
2017-Dec-09 22:30N 25°47' W 080°11'0 0.0
2017-Dec-09 22:00N 25°47' W 080°11'0 0.0
2017-Dec-09 21:30N 25°47' W 080°11'0 0.0
2017-Dec-09 20:57N 25°47' W 080°11'0 0.0
2017-Dec-09 20:30N 25°47' W 080°11'0 0.0
2017-Dec-09 20:00N 25°47' W 080°11'0 0.0
2017-Dec-09 19:30N 25°47' W 080°11'0 0.0
2017-Dec-09 19:00N 25°47' W 080°11'0 0.0
2017-Dec-09 18:30N 25°47' W 080°11'0 0.0
2017-Dec-09 18:00N 25°47' W 080°11'0 0.0
2017-Dec-09 17:30N 25°47' W 080°11'0 0.0
2017-Dec-09 17:00N 25°47' W 080°11'0 0.0
2017-Dec-09 16:30N 25°47' W 080°11'0 0.0
2017-Dec-09 16:00N 25°47' W 080°11'0 0.0
2017-Dec-09 15:30N 25°47' W 080°11'0 0.0
2017-Dec-09 15:00N 25°47' W 080°11'0 0.0
2017-Dec-09 14:30N 25°47' W 080°11'0 0.0
2017-Dec-09 14:00N 25°47' W 080°11'0 0.0
2017-Dec-09 13:30N 25°47' W 080°11'0 0.0
2017-Dec-09 13:00N 25°47' W 080°11'0 0.0
2017-Dec-09 12:27N 25°47' W 080°11'0 0.0
2017-Dec-09 12:00N 25°47' W 080°11'0 0.0
2017-Dec-09 11:30N 25°47' W 080°11'0 0.0
2017-Dec-09 11:00N 25°47' W 080°11'0 0.0
2017-Dec-09 10:27N 25°47' W 080°11'0 0.0
2017-Dec-09 10:00N 25°47' W 080°11'0 0.0
2017-Dec-09 09:30N 25°47' W 080°11'0 0.0
2017-Dec-09 08:57N 25°47' W 080°11'0 0.0
2017-Dec-09 08:30N 25°47' W 080°11'0 0.0
2017-Dec-09 08:00N 25°47' W 080°11'0 0.0
2017-Dec-09 07:24N 25°47' W 080°11'0 0.0
2017-Dec-09 07:00N 25°47' W 080°11'0 0.0
2017-Dec-09 06:30N 25°47' W 080°11'0 0.0
2017-Dec-09 06:00N 25°47' W 080°11'0 0.0
2017-Dec-09 05:30N 25°47' W 080°11'0 0.0
2017-Dec-09 05:00N 25°47' W 080°11'0 0.0
2017-Dec-09 04:30N 25°47' W 080°11'0 0.0
2017-Dec-09 04:00N 25°47' W 080°11'0 0.0
2017-Dec-09 03:27N 25°47' W 080°11'0 0.0
2017-Dec-09 03:00N 25°47' W 080°11'0 0.0
2017-Dec-09 02:30N 25°47' W 080°11'0 0.0
2017-Dec-09 02:00N 25°47' W 080°11'0 0.0
2017-Dec-09 01:30N 25°47' W 080°11'0 0.0
2017-Dec-09 01:00N 25°47' W 080°11'0 0.0
2017-Dec-09 00:30N 25°47' W 080°11'0 0.0
2017-Dec-09 00:00N 25°47' W 080°11'0 0.0
2017-Dec-08 23:30N 25°47' W 080°11'0 0.0
2017-Dec-08 23:00N 25°47' W 080°11'0 0.0
2017-Dec-08 22:30N 25°47' W 080°11'0 0.0
2017-Dec-08 22:00N 25°47' W 080°11'0 0.0
2017-Dec-08 21:30N 25°47' W 080°11'0 0.0
2017-Dec-08 21:00N 25°47' W 080°11'0 0.0
2017-Dec-08 20:30N 25°47' W 080°11'0 0.0
2017-Dec-08 20:00N 25°47' W 080°11'0 0.0
2017-Dec-08 19:27N 25°47' W 080°11'0 0.0
2017-Dec-08 18:57N 25°47' W 080°11'0 0.0
2017-Dec-08 18:30N 25°47' W 080°11'0 0.0
2017-Dec-08 18:00N 25°47' W 080°11'0 0.0
2017-Dec-08 17:30N 25°47' W 080°11'0 0.0
2017-Dec-08 17:00N 25°47' W 080°11'0 0.0
2017-Dec-08 16:30N 25°47' W 080°11'0 0.0
2017-Dec-08 16:00N 25°47' W 080°11'0 0.0
2017-Dec-08 15:30N 25°47' W 080°11'0 0.0
2017-Dec-08 14:57N 25°47' W 080°11'0 0.0
2017-Dec-08 14:30N 25°47' W 080°11'0 0.0
2017-Dec-08 13:57N 25°47' W 080°11'0 0.0
2017-Dec-08 13:30N 25°47' W 080°11'0 0.0
2017-Dec-08 13:00N 25°47' W 080°11'0 0.0
2017-Dec-08 12:27N 25°47' W 080°11'0 0.0
2017-Dec-08 12:00N 25°47' W 080°11'0 0.0
2017-Dec-08 11:27N 25°47' W 080°11'0 0.0
2017-Dec-08 11:00N 25°47' W 080°11'0 0.0
2017-Dec-08 10:24N 25°47' W 080°11'0 0.0
2017-Dec-08 10:00N 25°47' W 080°11'0 0.0
2017-Dec-08 09:30N 25°47' W 080°11'0 0.0
2017-Dec-08 09:00N 25°47' W 080°11'0 0.0
2017-Dec-08 08:30N 25°47' W 080°11'0 0.0
2017-Dec-08 08:00N 25°47' W 080°11'0 0.0
2017-Dec-08 07:30N 25°47' W 080°11'0 0.0
2017-Dec-08 07:00N 25°47' W 080°11'0 0.0
2017-Dec-08 06:30N 25°47' W 080°11'0 0.0
2017-Dec-08 06:00N 25°47' W 080°11'0 0.0
2017-Dec-08 05:30N 25°47' W 080°11'0 0.0
2017-Dec-08 05:00N 25°47' W 080°11'0 0.0
2017-Dec-08 04:30N 25°47' W 080°11'0 0.0
2017-Dec-08 04:00N 25°47' W 080°11'0 0.0
2017-Dec-08 03:27N 25°47' W 080°11'0 0.0
2017-Dec-08 02:57N 25°47' W 080°11'0 0.0
2017-Dec-08 02:30N 25°47' W 080°11'0 0.0
2017-Dec-08 02:00N 25°47' W 080°11'0 0.0
2017-Dec-08 01:27N 25°47' W 080°11'0 0.0
2017-Dec-08 01:00N 25°47' W 080°11'0 0.0
2017-Dec-08 00:27N 25°47' W 080°11'0 0.0
2017-Dec-08 00:00N 25°47' W 080°11'0 0.0
2017-Dec-07 23:27N 25°47' W 080°11'0 0.0
2017-Dec-07 23:00N 25°47' W 080°11'0 0.0
2017-Dec-07 22:24N 25°47' W 080°11'0 0.0
2017-Dec-07 22:00N 25°47' W 080°11'0 0.0
2017-Dec-07 21:24N 25°47' W 080°11'0 0.0
2017-Dec-07 21:00N 25°47' W 080°11'0 0.0
2017-Dec-07 20:27N 25°47' W 080°11'0 0.0
2017-Dec-07 19:57N 25°47' W 080°11'0 0.0
2017-Dec-07 19:30N 25°47' W 080°11'0 0.0
2017-Dec-07 19:00N 25°47' W 080°11'0 0.0
2017-Dec-07 18:30N 25°47' W 080°11'0 0.0
2017-Dec-07 18:00N 25°47' W 080°11'0 0.0
2017-Dec-07 17:30N 25°47' W 080°11'0 0.0
2017-Dec-07 17:00N 25°47' W 080°11'0 0.0
2017-Dec-07 16:30N 25°47' W 080°11'0 0.0
2017-Dec-07 16:00N 25°47' W 080°11'0 0.0
2017-Dec-07 15:30N 25°47' W 080°11'0 0.0
2017-Dec-07 15:00N 25°47' W 080°11'0 0.0
2017-Dec-07 14:30N 25°47' W 080°11'0 0.0
2017-Dec-07 13:54N 25°47' W 080°11'0 0.0
2017-Dec-07 13:30N 25°47' W 080°11'0 0.0
2017-Dec-07 13:00N 25°47' W 080°11'0 0.0
2017-Dec-07 12:30N 25°47' W 080°11'0 0.0
2017-Dec-07 11:57N 25°47' W 080°11'0 0.0
2017-Dec-07 11:30N 25°47' W 080°11'0 0.0
2017-Dec-07 10:54N 25°47' W 080°11'0 0.0
2017-Dec-07 10:27N 25°47' W 080°11'0 0.0
2017-Dec-07 09:57N 25°47' W 080°11'0 0.0
2017-Dec-07 09:27N 25°47' W 080°11'0 0.0
2017-Dec-07 08:57N 25°47' W 080°11'0 0.0
2017-Dec-07 08:30N 25°47' W 080°11'0 0.0
2017-Dec-07 08:00N 25°47' W 080°11'0 0.0
2017-Dec-07 07:30N 25°47' W 080°11'0 0.0
2017-Dec-07 07:00N 25°47' W 080°11'0 0.0
2017-Dec-07 06:30N 25°47' W 080°11'0 0.0
2017-Dec-07 06:00N 25°47' W 080°11'0 0.0
2017-Dec-07 05:30N 25°47' W 080°11'0 0.0
2017-Dec-07 05:00N 25°47' W 080°11'0 0.0
2017-Dec-07 04:30N 25°47' W 080°11'0 0.0
2017-Dec-07 04:00N 25°47' W 080°11'0 0.0
2017-Dec-07 03:30N 25°47' W 080°11'0 0.0
2017-Dec-07 03:00N 25°47' W 080°11'0 0.0
2017-Dec-07 02:27N 25°47' W 080°11'0 0.0
2017-Dec-07 02:00N 25°47' W 080°11'0 0.0
2017-Dec-07 01:27N 25°47' W 080°11'0 0.0
2017-Dec-07 01:00N 25°47' W 080°11'0 0.0
2017-Dec-07 00:30N 25°47' W 080°11'0 0.0
2017-Dec-07 00:00N 25°47' W 080°11'0 0.0
2017-Dec-06 23:30N 25°47' W 080°11'0 0.0
2017-Dec-06 23:00N 25°47' W 080°11'0 0.0
2017-Dec-06 22:24N 25°47' W 080°11'0 0.0
2017-Dec-06 22:00N 25°47' W 080°11'0 0.0
2017-Dec-06 21:27N 25°47' W 080°11'0 0.0
2017-Dec-06 21:00N 25°47' W 080°11'  
2017-Dec-04 10:09N 25°47' W 080°11'0 0.0
2017-Dec-04 09:54N 25°47' W 080°11'0 0.0
2017-Dec-04 09:21N 25°47' W 080°11'0 0.0
2017-Dec-04 08:57N 25°47' W 080°11'0 0.0
2017-Dec-04 08:30N 25°47' W 080°11'0 0.0
2017-Dec-04 07:33N 25°47' W 080°11'0 0.1
2017-Dec-04 07:27N 25°47' W 080°11'0 0.0
2017-Dec-04 06:57N 25°47' W 080°11'0 0.0
2017-Dec-04 06:30N 25°47' W 080°11'0 0.0
2017-Dec-04 06:00N 25°47' W 080°11'0 0.0
2017-Dec-04 05:27N 25°47' W 080°11'0 0.0
2017-Dec-04 04:57N 25°47' W 080°11'0 0.0
2017-Dec-04 04:30N 25°47' W 080°11'0 0.0
2017-Dec-04 04:00N 25°47' W 080°11'0 0.0
2017-Dec-04 03:30N 25°47' W 080°11'0 0.0
2017-Dec-04 03:00N 25°47' W 080°11'0 0.0
2017-Dec-04 02:30N 25°47' W 080°11'0 0.0
2017-Dec-04 02:00N 25°47' W 080°11'0 0.0
2017-Dec-04 01:30N 25°47' W 080°11'0 0.0
2017-Dec-04 01:00N 25°47' W 080°11'0 0.0
2017-Dec-04 00:27N 25°47' W 080°11'0 0.0
2017-Dec-04 00:00N 25°47' W 080°11'0 0.0
2017-Dec-03 23:30N 25°47' W 080°11'0 0.0
2017-Dec-03 23:00N 25°47' W 080°11'0 0.0
2017-Dec-03 22:30N 25°47' W 080°11'0 0.0
2017-Dec-03 22:00N 25°47' W 080°11'0 0.0
2017-Dec-03 21:30N 25°47' W 080°11'0 0.0
2017-Dec-03 20:48N 25°47' W 080°11'0 0.0
2017-Dec-03 20:30N 25°47' W 080°11'0 0.0
2017-Dec-03 20:00N 25°47' W 080°11'0 0.0
2017-Dec-03 19:30N 25°47' W 080°11'0 0.0
2017-Dec-03 19:00N 25°47' W 080°11'0 0.0
2017-Dec-03 18:30N 25°47' W 080°11'0 0.0
2017-Dec-03 18:00N 25°47' W 080°11'0 0.0
2017-Dec-03 17:30N 25°47' W 080°11'0 0.0
2017-Dec-03 17:00N 25°47' W 080°11'0 0.0
2017-Dec-03 16:30N 25°47' W 080°11'0 0.0
2017-Dec-03 15:57N 25°47' W 080°11'0 0.0
2017-Dec-03 15:30N 25°47' W 080°11'0 0.0
2017-Dec-03 14:57N 25°47' W 080°11'0 0.0
2017-Dec-03 14:30N 25°47' W 080°11'0 0.0
2017-Dec-03 13:57N 25°47' W 080°11'0 0.0
2017-Dec-03 13:27N 25°47' W 080°11'0 0.0
2017-Dec-03 13:00N 25°47' W 080°11'0 0.0
2017-Dec-03 12:27N 25°47' W 080°11'0 0.0
2017-Dec-03 12:00N 25°47' W 080°11'0 0.0
2017-Dec-03 11:27N 25°47' W 080°11'0 0.0
2017-Dec-03 11:00N 25°47' W 080°11'0 0.0
2017-Dec-03 10:30N 25°47' W 080°11'0 0.0
2017-Dec-03 10:00N 25°47' W 080°11'0 0.0
2017-Dec-03 09:30N 25°47' W 080°11'0 0.0
2017-Dec-03 09:00N 25°47' W 080°11'0 0.0
2017-Dec-03 08:27N 25°47' W 080°11'0 0.0
2017-Dec-03 08:00N 25°47' W 080°11'0 0.0
2017-Dec-03 07:30N 25°47' W 080°11'0 0.0
2017-Dec-03 07:00N 25°47' W 080°11'0 0.0
2017-Dec-03 06:24N 25°47' W 080°11'0 0.0
2017-Dec-03 06:00N 25°47' W 080°11'0 0.0
2017-Dec-03 05:30N 25°47' W 080°11'0 0.0
2017-Dec-03 05:00N 25°47' W 080°11'0 0.0
2017-Dec-03 04:30N 25°47' W 080°11'0 0.0
2017-Dec-03 04:00N 25°47' W 080°11'0 0.0
2017-Dec-03 03:30N 25°47' W 080°11'0 0.0
2017-Dec-03 03:00N 25°47' W 080°11'0 0.0
2017-Dec-03 02:30N 25°47' W 080°11'0 0.0
2017-Dec-03 02:00N 25°47' W 080°11'0 0.0
2017-Dec-03 01:30N 25°47' W 080°11'0 0.0
2017-Dec-03 01:00N 25°47' W 080°11'0 0.0
2017-Dec-03 00:26N 25°47' W 080°11'0 0.0
2017-Dec-03 00:00N 25°47' W 080°11'0 0.0
2017-Dec-02 23:24N 25°47' W 080°11'0 0.0
2017-Dec-02 23:00N 25°47' W 080°11'0 0.0
2017-Dec-02 22:30N 25°47' W 080°11'0 0.0
2017-Dec-02 22:00N 25°47' W 080°11'0 0.0
2017-Dec-02 21:27N 25°47' W 080°11'0 0.0
2017-Dec-02 20:54N 25°47' W 080°11'0 0.0
2017-Dec-02 20:30N 25°47' W 080°11'0 0.0
2017-Dec-02 20:00N 25°47' W 080°11'0 0.0
2017-Dec-02 19:30N 25°47' W 080°11'0 0.0
2017-Dec-02 19:00N 25°47' W 080°11'0 0.0
2017-Dec-02 18:30N 25°47' W 080°11'0 0.0
2017-Dec-02 17:59N 25°47' W 080°11'0 0.0
2017-Dec-02 17:27N 25°47' W 080°11'0 0.0
2017-Dec-02 17:00N 25°47' W 080°11'0 0.0
2017-Dec-02 16:26N 25°47' W 080°11'0 0.0
2017-Dec-02 15:57N 25°47' W 080°11'0 0.0
2017-Dec-02 15:30N 25°47' W 080°11'0 0.0
2017-Dec-02 14:57N 25°47' W 080°11'0 0.0
2017-Dec-02 14:30N 25°47' W 080°11'0 0.0
2017-Dec-02 14:00N 25°47' W 080°11'0 0.0
2017-Dec-02 13:29N 25°47' W 080°11'0 0.0
2017-Dec-02 12:57N 25°47' W 080°11'0 0.0
2017-Dec-02 12:30N 25°47' W 080°11'0 0.0
2017-Dec-02 11:59N 25°47' W 080°11'0 0.0
2017-Dec-02 11:30N 25°47' W 080°11'0 0.0
2017-Dec-02 11:00N 25°47' W 080°11'0 0.0
2017-Dec-02 10:30N 25°47' W 080°11'0 0.0
2017-Dec-02 09:59N 25°47' W 080°11'0 0.0
2017-Dec-02 09:27N 25°47' W 080°11'0 0.0
2017-Dec-02 09:00N 25°47' W 080°11'0 0.0
2017-Dec-02 08:27N 25°47' W 080°11'0 0.0
2017-Dec-02 07:56N 25°47' W 080°11'0 0.0
2017-Dec-02 07:27N 25°47' W 080°11'0 0.0
2017-Dec-02 06:57N 25°47' W 080°11'0 0.0
2017-Dec-02 06:26N 25°47' W 080°11'0 0.0
2017-Dec-02 05:59N 25°47' W 080°11'0 0.0
2017-Dec-02 05:29N 25°47' W 080°11'0 0.0
2017-Dec-02 04:56N 25°47' W 080°11'0 0.0
2017-Dec-02 04:29N 25°47' W 080°11'0 0.0
2017-Dec-02 04:00N 25°47' W 080°11'0 0.0
2017-Dec-02 03:29N 25°47' W 080°11'0 0.0
2017-Dec-02 02:59N 25°47' W 080°11'0 0.0
2017-Dec-02 02:26N 25°47' W 080°11'0 0.0
2017-Dec-02 01:59N 25°47' W 080°11'0 0.0
2017-Dec-02 01:30N 25°47' W 080°11'0 0.0
2017-Dec-02 00:59N 25°47' W 080°11'0 0.0
2017-Dec-02 00:29N 25°47' W 080°11'0 0.0
2017-Dec-01 23:59N 25°47' W 080°11'0 0.0
2017-Dec-01 23:26N 25°47' W 080°11'0 0.0
2017-Dec-01 23:00N 25°47' W 080°11'0 0.0
2017-Dec-01 22:29N 25°47' W 080°11'0 0.0
2017-Dec-01 21:59N 25°47' W 080°11'0 0.0
2017-Dec-01 21:29N 25°47' W 080°11'0 0.0
2017-Dec-01 20:59N 25°47' W 080°11'0 0.0
2017-Dec-01 20:29N 25°47' W 080°11'0 0.0
2017-Dec-01 19:59N 25°47' W 080°11'0 0.0
2017-Dec-01 19:29N 25°47' W 080°11'0 0.0
2017-Dec-01 18:59N 25°47' W 080°11'0 0.0
2017-Dec-01 18:29N 25°47' W 080°11'0 0.0
2017-Dec-01 17:54N 25°47' W 080°11'0 0.0
2017-Dec-01 17:14N 25°47' W 080°11'0 0.0
2017-Dec-01 16:59N 25°47' W 080°11'0 0.0
2017-Dec-01 16:29N 25°47' W 080°11'0 0.0
2017-Dec-01 15:59N 25°47' W 080°11'0 0.0
2017-Dec-01 15:29N 25°47' W 080°11'0 0.0
2017-Dec-01 14:53N 25°47' W 080°11'0 0.0
2017-Dec-01 14:30N 25°47' W 080°11'0 0.0
2017-Dec-01 13:59N 25°47' W 080°11'0 0.0
2017-Dec-01 13:26N 25°47' W 080°11'0 0.0
2017-Dec-01 12:59N 25°47' W 080°11'0 0.0
2017-Dec-01 12:26N 25°47' W 080°11'0 0.0
2017-Dec-01 11:59N 25°47' W 080°11'0 0.0
2017-Dec-01 11:29N 25°47' W 080°11'0 0.0
2017-Dec-01 10:59N 25°47' W 080°11'0 0.0
2017-Dec-01 10:29N 25°47' W 080°11'0 0.0
2017-Dec-01 09:59N 25°47' W 080°11'0 0.0
2017-Dec-01 09:29N 25°47' W 080°11'0 0.0
2017-Dec-01 08:59N 25°47' W 080°11'0 0.0
2017-Dec-01 08:29N 25°47' W 080°11'0 0.0
2017-Dec-01 07:47N 25°47' W 080°11'0 0.0
2017-Dec-01 07:29N 25°47' W 080°11'0 0.0
2017-Dec-01 06:59N 25°47' W 080°11'0 0.0
2017-Dec-01 06:23N 25°47' W 080°11'0 0.0
2017-Dec-01 05:53N 25°47' W 080°11'0 0.0
2017-Dec-01 05:29N 25°47' W 080°11'0 0.0
2017-Dec-01 04:56N 25°47' W 080°11'0 0.0
2017-Dec-01 04:29N 25°47' W 080°11'0 0.0
2017-Dec-01 03:59N 25°47' W 080°11'0 0.0
2017-Dec-01 03:29N 25°47' W 080°11'0 0.0
2017-Dec-01 02:59N 25°47' W 080°11'0 0.0
2017-Dec-01 02:26N 25°47' W 080°11'0 0.0
2017-Dec-01 01:59N 25°47' W 080°11'0 0.0
2017-Dec-01 01:29N 25°47' W 080°11'0 0.0
2017-Dec-01 00:59N 25°47' W 080°11'0 0.0
2017-Dec-01 00:29N 25°47' W 080°11'  
Track history (hours):
 
Tides and Currents Weather Stations Pressure Air Temp Water Temp Dewpoint Dewpoint Depression Visibility Wind Speed Wind Dir Waves Ship Positions

Nrc Liberty

Owner: National Response Corporation, The Woodlands, TX. More information available from US FCC via Universal Licensing System and Coast Guard Vessel Documentation Center.

Last reported at 2017-Dec-11 00:13 UTC. Time now 2017-Dec-11 04:15 UTC.
Position N 25°21' W 080°07'.

Length 37 m; draft 4 m.

Type: Pollution control. MMSI: 338056000.

Date/timePositionNaut miles runAvg speedWind from/ knotsBaromVisibWave heightAir tempDewpointWater temp
2017-Dec-11 00:13N 25°21' W 080°07'2 7.3
2017-Dec-11 00:00N 25°23' W 080°06'4 7.7
2017-Dec-10 23:30N 25°27' W 080°06'4 7.7
2017-Dec-10 22:59N 25°30' W 080°05'5 9.3
2017-Dec-10 22:30N 25°35' W 080°05'5 9.7
2017-Dec-10 22:00N 25°40' W 080°05'5 9.6
2017-Dec-10 21:30N 25°45' W 080°06'3 6.5
2017-Dec-10 21:00N 25°46' W 080°09'2 4.1
2017-Dec-10 20:30N 25°47' W 080°11'0 0.0
2017-Dec-10 19:54N 25°47' W 080°11'0 0.0
2017-Dec-10 19:30N 25°47' W 080°11'0 0.0
2017-Dec-10 19:00N 25°47' W 080°11'0 0.0
2017-Dec-10 18:30N 25°47' W 080°11'0 0.0
2017-Dec-10 17:57N 25°47' W 080°11'0 0.0
2017-Dec-10 17:27N 25°47' W 080°11'0 0.0
2017-Dec-10 17:00N 25°47' W 080°11'0 0.0
2017-Dec-10 16:30N 25°47' W 080°11'0 0.0
2017-Dec-10 16:00N 25°47' W 080°11'0 0.0
2017-Dec-10 15:30N 25°47' W 080°11'0 0.0
2017-Dec-10 15:00N 25°47' W 080°11'0 0.0
2017-Dec-10 14:30N 25°47' W 080°11'0 0.0
2017-Dec-10 13:54N 25°47' W 080°11'0 0.0
2017-Dec-10 13:30N 25°47' W 080°11'0 0.0
2017-Dec-10 13:00N 25°47' W 080°11'0 0.0
2017-Dec-10 12:30N 25°47' W 080°11'0 0.0
2017-Dec-10 11:54N 25°47' W 080°11'0 0.0
2017-Dec-10 11:24N 25°47' W 080°11'0 0.0
2017-Dec-10 11:00N 25°47' W 080°11'0 0.0
2017-Dec-10 10:30N 25°47' W 080°11'0 0.0
2017-Dec-10 10:00N 25°47' W 080°11'0 0.0
2017-Dec-10 09:30N 25°47' W 080°11'0 0.0
2017-Dec-10 09:00N 25°47' W 080°11'0 0.0
2017-Dec-10 08:30N 25°47' W 080°11'0 0.0
2017-Dec-10 08:00N 25°47' W 080°11'0 0.0
2017-Dec-10 07:30N 25°47' W 080°11'0 0.0
2017-Dec-10 07:00N 25°47' W 080°11'0 0.0
2017-Dec-10 06:30N 25°47' W 080°11'0 0.0
2017-Dec-10 06:00N 25°47' W 080°11'0 0.0
2017-Dec-10 05:30N 25°47' W 080°11'0 0.0
2017-Dec-10 05:00N 25°47' W 080°11'0 0.0
2017-Dec-10 04:30N 25°47' W 080°11'0 0.0
2017-Dec-10 04:00N 25°47' W 080°11'0 0.0
2017-Dec-10 03:30N 25°47' W 080°11'0 0.0
2017-Dec-10 02:57N 25°47' W 080°11'0 0.0
2017-Dec-10 02:24N 25°47' W 080°11'0 0.0
2017-Dec-10 02:00N 25°47' W 080°11'0 0.0
2017-Dec-10 01:30N 25°47' W 080°11'0 0.0
2017-Dec-10 01:00N 25°47' W 080°11'0 0.0
2017-Dec-10 00:27N 25°47' W 080°11'0 0.0
2017-Dec-10 00:00N 25°47' W 080°11'0 0.0
2017-Dec-09 23:30N 25°47' W 080°11'0 0.0
2017-Dec-09 22:57N 25°47' W 080°11'0 0.0
2017-Dec-09 22:30N 25°47' W 080°11'0 0.0
2017-Dec-09 22:00N 25°47' W 080°11'0 0.0
2017-Dec-09 21:30N 25°47' W 080°11'0 0.0
2017-Dec-09 20:57N 25°47' W 080°11'0 0.0
2017-Dec-09 20:30N 25°47' W 080°11'0 0.0
2017-Dec-09 20:00N 25°47' W 080°11'0 0.0
2017-Dec-09 19:30N 25°47' W 080°11'0 0.0
2017-Dec-09 19:00N 25°47' W 080°11'0 0.0
2017-Dec-09 18:30N 25°47' W 080°11'0 0.0
2017-Dec-09 18:00N 25°47' W 080°11'0 0.0
2017-Dec-09 17:30N 25°47' W 080°11'0 0.0
2017-Dec-09 17:00N 25°47' W 080°11'0 0.0
2017-Dec-09 16:30N 25°47' W 080°11'0 0.0
2017-Dec-09 16:00N 25°47' W 080°11'0 0.0
2017-Dec-09 15:30N 25°47' W 080°11'0 0.0
2017-Dec-09 15:00N 25°47' W 080°11'0 0.0
2017-Dec-09 14:30N 25°47' W 080°11'0 0.0
2017-Dec-09 14:00N 25°47' W 080°11'0 0.0
2017-Dec-09 13:30N 25°47' W 080°11'0 0.0
2017-Dec-09 13:00N 25°47' W 080°11'0 0.0
2017-Dec-09 12:27N 25°47' W 080°11'0 0.0
2017-Dec-09 12:00N 25°47' W 080°11'0 0.0
2017-Dec-09 11:30N 25°47' W 080°11'0 0.0
2017-Dec-09 11:00N 25°47' W 080°11'0 0.0
2017-Dec-09 10:27N 25°47' W 080°11'0 0.0
2017-Dec-09 10:00N 25°47' W 080°11'0 0.0
2017-Dec-09 09:30N 25°47' W 080°11'0 0.0
2017-Dec-09 08:57N 25°47' W 080°11'0 0.0
2017-Dec-09 08:30N 25°47' W 080°11'0 0.0
2017-Dec-09 08:00N 25°47' W 080°11'0 0.0
2017-Dec-09 07:24N 25°47' W 080°11'0 0.0
2017-Dec-09 07:00N 25°47' W 080°11'0 0.0
2017-Dec-09 06:30N 25°47' W 080°11'0 0.0
2017-Dec-09 06:00N 25°47' W 080°11'0 0.0
2017-Dec-09 05:30N 25°47' W 080°11'0 0.0
2017-Dec-09 05:00N 25°47' W 080°11'0 0.0
2017-Dec-09 04:30N 25°47' W 080°11'0 0.0
2017-Dec-09 04:00N 25°47' W 080°11'0 0.0
2017-Dec-09 03:27N 25°47' W 080°11'0 0.0
2017-Dec-09 03:00N 25°47' W 080°11'0 0.0
2017-Dec-09 02:30N 25°47' W 080°11'0 0.0
2017-Dec-09 02:00N 25°47' W 080°11'0 0.0
2017-Dec-09 01:30N 25°47' W 080°11'0 0.0
2017-Dec-09 01:00N 25°47' W 080°11'0 0.0
2017-Dec-09 00:30N 25°47' W 080°11'0 0.0
2017-Dec-09 00:00N 25°47' W 080°11'0 0.0
2017-Dec-08 23:30N 25°47' W 080°11'0 0.0
2017-Dec-08 23:00N 25°47' W 080°11'0 0.0
2017-Dec-08 22:30N 25°47' W 080°11'0 0.0
2017-Dec-08 22:00N 25°47' W 080°11'0 0.0
2017-Dec-08 21:30N 25°47' W 080°11'0 0.0
2017-Dec-08 21:00N 25°47' W 080°11'0 0.0
2017-Dec-08 20:30N 25°47' W 080°11'0 0.0
2017-Dec-08 20:00N 25°47' W 080°11'0 0.0
2017-Dec-08 19:27N 25°47' W 080°11'0 0.0
2017-Dec-08 18:57N 25°47' W 080°11'0 0.0
2017-Dec-08 18:30N 25°47' W 080°11'0 0.0
2017-Dec-08 18:00N 25°47' W 080°11'0 0.0
2017-Dec-08 17:30N 25°47' W 080°11'0 0.0
2017-Dec-08 17:00N 25°47' W 080°11'0 0.0
2017-Dec-08 16:30N 25°47' W 080°11'0 0.0
2017-Dec-08 16:00N 25°47' W 080°11'0 0.0
2017-Dec-08 15:30N 25°47' W 080°11'0 0.0
2017-Dec-08 14:57N 25°47' W 080°11'0 0.0
2017-Dec-08 14:30N 25°47' W 080°11'0 0.0
2017-Dec-08 13:57N 25°47' W 080°11'0 0.0
2017-Dec-08 13:30N 25°47' W 080°11'0 0.0
2017-Dec-08 13:00N 25°47' W 080°11'0 0.0
2017-Dec-08 12:27N 25°47' W 080°11'0 0.0
2017-Dec-08 12:00N 25°47' W 080°11'0 0.0
2017-Dec-08 11:27N 25°47' W 080°11'0 0.0
2017-Dec-08 11:00N 25°47' W 080°11'0 0.0
2017-Dec-08 10:24N 25°47' W 080°11'0 0.0
2017-Dec-08 10:00N 25°47' W 080°11'0 0.0
2017-Dec-08 09:30N 25°47' W 080°11'0 0.0
2017-Dec-08 09:00N 25°47' W 080°11'0 0.0
2017-Dec-08 08:30N 25°47' W 080°11'0 0.0
2017-Dec-08 08:00N 25°47' W 080°11'0 0.0
2017-Dec-08 07:30N 25°47' W 080°11'0 0.0
2017-Dec-08 07:00N 25°47' W 080°11'0 0.0
2017-Dec-08 06:30N 25°47' W 080°11'0 0.0
2017-Dec-08 06:00N 25°47' W 080°11'0 0.0
2017-Dec-08 05:30N 25°47' W 080°11'0 0.0
2017-Dec-08 05:00N 25°47' W 080°11'0 0.0
2017-Dec-08 04:30N 25°47' W 080°11'0 0.0
2017-Dec-08 04:00N 25°47' W 080°11'0 0.0
2017-Dec-08 03:27N 25°47' W 080°11'0 0.0
2017-Dec-08 02:57N 25°47' W 080°11'0 0.0
2017-Dec-08 02:30N 25°47' W 080°11'0 0.0
2017-Dec-08 02:00N 25°47' W 080°11'0 0.0
2017-Dec-08 01:27N 25°47' W 080°11'0 0.0
2017-Dec-08 01:00N 25°47' W 080°11'0 0.0
2017-Dec-08 00:27N 25°47' W 080°11'0 0.0
2017-Dec-08 00:00N 25°47' W 080°11'0 0.0
2017-Dec-07 23:27N 25°47' W 080°11'0 0.0
2017-Dec-07 23:00N 25°47' W 080°11'0 0.0
2017-Dec-07 22:24N 25°47' W 080°11'0 0.0
2017-Dec-07 22:00N 25°47' W 080°11'0 0.0
2017-Dec-07 21:24N 25°47' W 080°11'0 0.0
2017-Dec-07 21:00N 25°47' W 080°11'0 0.0
2017-Dec-07 20:27N 25°47' W 080°11'0 0.0
2017-Dec-07 19:57N 25°47' W 080°11'0 0.0
2017-Dec-07 19:30N 25°47' W 080°11'0 0.0
2017-Dec-07 19:00N 25°47' W 080°11'0 0.0
2017-Dec-07 18:30N 25°47' W 080°11'0 0.0
2017-Dec-07 18:00N 25°47' W 080°11'0 0.0
2017-Dec-07 17:30N 25°47' W 080°11'0 0.0
2017-Dec-07 17:00N 25°47' W 080°11'0 0.0
2017-Dec-07 16:30N 25°47' W 080°11'0 0.0
2017-Dec-07 16:00N 25°47' W 080°11'0 0.0
2017-Dec-07 15:30N 25°47' W 080°11'0 0.0
2017-Dec-07 15:00N 25°47' W 080°11'0 0.0
2017-Dec-07 14:30N 25°47' W 080°11'0 0.0
2017-Dec-07 13:54N 25°47' W 080°11'0 0.0
2017-Dec-07 13:30N 25°47' W 080°11'0 0.0
2017-Dec-07 13:00N 25°47' W 080°11'0 0.0
2017-Dec-07 12:30N 25°47' W 080°11'0 0.0
2017-Dec-07 11:57N 25°47' W 080°11'0 0.0
2017-Dec-07 11:30N 25°47' W 080°11'0 0.0
2017-Dec-07 10:54N 25°47' W 080°11'0 0.0
2017-Dec-07 10:27N 25°47' W 080°11'0 0.0
2017-Dec-07 09:57N 25°47' W 080°11'0 0.0
2017-Dec-07 09:27N 25°47' W 080°11'0 0.0
2017-Dec-07 08:57N 25°47' W 080°11'0 0.0
2017-Dec-07 08:30N 25°47' W 080°11'0 0.0
2017-Dec-07 08:00N 25°47' W 080°11'0 0.0
2017-Dec-07 07:30N 25°47' W 080°11'0 0.0
2017-Dec-07 07:00N 25°47' W 080°11'0 0.0
2017-Dec-07 06:30N 25°47' W 080°11'0 0.0
2017-Dec-07 06:00N 25°47' W 080°11'0 0.0
2017-Dec-07 05:30N 25°47' W 080°11'0 0.0
2017-Dec-07 05:00N 25°47' W 080°11'0 0.0
2017-Dec-07 04:30N 25°47' W 080°11'0 0.0
2017-Dec-07 04:00N 25°47' W 080°11'0 0.0
2017-Dec-07 03:30N 25°47' W 080°11'0 0.0
2017-Dec-07 03:00N 25°47' W 080°11'0 0.0
2017-Dec-07 02:27N 25°47' W 080°11'0 0.0
2017-Dec-07 02:00N 25°47' W 080°11'0 0.0
2017-Dec-07 01:27N 25°47' W 080°11'0 0.0
2017-Dec-07 01:00N 25°47' W 080°11'0 0.0
2017-Dec-07 00:30N 25°47' W 080°11'0 0.0
2017-Dec-07 00:00N 25°47' W 080°11'0 0.0
2017-Dec-06 23:30N 25°47' W 080°11'0 0.0
2017-Dec-06 23:00N 25°47' W 080°11'0 0.0
2017-Dec-06 22:24N 25°47' W 080°11'0 0.0
2017-Dec-06 22:00N 25°47' W 080°11'0 0.0
2017-Dec-06 21:27N 25°47' W 080°11'0 0.0
2017-Dec-06 21:00N 25°47' W 080°11'  
2017-Dec-04 10:09N 25°47' W 080°11'0 0.0
2017-Dec-04 09:54N 25°47' W 080°11'0 0.0
2017-Dec-04 09:21N 25°47' W 080°11'0 0.0
2017-Dec-04 08:57N 25°47' W 080°11'0 0.0
2017-Dec-04 08:30N 25°47' W 080°11'0 0.0
2017-Dec-04 07:33N 25°47' W 080°11'0 0.1
2017-Dec-04 07:27N 25°47' W 080°11'0 0.0
2017-Dec-04 06:57N 25°47' W 080°11'0 0.0
2017-Dec-04 06:30N 25°47' W 080°11'0 0.0
2017-Dec-04 06:00N 25°47' W 080°11'0 0.0
2017-Dec-04 05:27N 25°47' W 080°11'0 0.0
2017-Dec-04 04:57N 25°47' W 080°11'0 0.0
2017-Dec-04 04:30N 25°47' W 080°11'0 0.0
2017-Dec-04 04:00N 25°47' W 080°11'0 0.0
2017-Dec-04 03:30N 25°47' W 080°11'0 0.0
2017-Dec-04 03:00N 25°47' W 080°11'0 0.0
2017-Dec-04 02:30N 25°47' W 080°11'0 0.0
2017-Dec-04 02:00N 25°47' W 080°11'0 0.0
2017-Dec-04 01:30N 25°47' W 080°11'0 0.0
2017-Dec-04 01:00N 25°47' W 080°11'0 0.0
2017-Dec-04 00:27N 25°47' W 080°11'0 0.0
2017-Dec-04 00:00N 25°47' W 080°11'0 0.0
2017-Dec-03 23:30N 25°47' W 080°11'0 0.0
2017-Dec-03 23:00N 25°47' W 080°11'0 0.0
2017-Dec-03 22:30N 25°47' W 080°11'0 0.0
2017-Dec-03 22:00N 25°47' W 080°11'0 0.0
2017-Dec-03 21:30N 25°47' W 080°11'0 0.0
2017-Dec-03 20:48N 25°47' W 080°11'0 0.0
2017-Dec-03 20:30N 25°47' W 080°11'0 0.0
2017-Dec-03 20:00N 25°47' W 080°11'0 0.0
2017-Dec-03 19:30N 25°47' W 080°11'0 0.0
2017-Dec-03 19:00N 25°47' W 080°11'0 0.0
2017-Dec-03 18:30N 25°47' W 080°11'0 0.0
2017-Dec-03 18:00N 25°47' W 080°11'0 0.0
2017-Dec-03 17:30N 25°47' W 080°11'0 0.0
2017-Dec-03 17:00N 25°47' W 080°11'0 0.0
2017-Dec-03 16:30N 25°47' W 080°11'0 0.0
2017-Dec-03 15:57N 25°47' W 080°11'0 0.0
2017-Dec-03 15:30N 25°47' W 080°11'0 0.0
2017-Dec-03 14:57N 25°47' W 080°11'0 0.0
2017-Dec-03 14:30N 25°47' W 080°11'0 0.0
2017-Dec-03 13:57N 25°47' W 080°11'0 0.0
2017-Dec-03 13:27N 25°47' W 080°11'0 0.0
2017-Dec-03 13:00N 25°47' W 080°11'0 0.0
2017-Dec-03 12:27N 25°47' W 080°11'0 0.0
2017-Dec-03 12:00N 25°47' W 080°11'0 0.0
2017-Dec-03 11:27N 25°47' W 080°11'0 0.0
2017-Dec-03 11:00N 25°47' W 080°11'0 0.0
2017-Dec-03 10:30N 25°47' W 080°11'0 0.0
2017-Dec-03 10:00N 25°47' W 080°11'0 0.0
2017-Dec-03 09:30N 25°47' W 080°11'0 0.0
2017-Dec-03 09:00N 25°47' W 080°11'0 0.0
2017-Dec-03 08:27N 25°47' W 080°11'0 0.0
2017-Dec-03 08:00N 25°47' W 080°11'0 0.0
2017-Dec-03 07:30N 25°47' W 080°11'0 0.0
2017-Dec-03 07:00N 25°47' W 080°11'0 0.0
2017-Dec-03 06:24N 25°47' W 080°11'0 0.0
2017-Dec-03 06:00N 25°47' W 080°11'0 0.0
2017-Dec-03 05:30N 25°47' W 080°11'0 0.0
2017-Dec-03 05:00N 25°47' W 080°11'0 0.0
2017-Dec-03 04:30N 25°47' W 080°11'0 0.0
2017-Dec-03 04:00N 25°47' W 080°11'0 0.0
2017-Dec-03 03:30N 25°47' W 080°11'0 0.0
2017-Dec-03 03:00N 25°47' W 080°11'0 0.0
2017-Dec-03 02:30N 25°47' W 080°11'0 0.0
2017-Dec-03 02:00N 25°47' W 080°11'0 0.0
2017-Dec-03 01:30N 25°47' W 080°11'0 0.0
2017-Dec-03 01:00N 25°47' W 080°11'0 0.0
2017-Dec-03 00:26N 25°47' W 080°11'0 0.0
2017-Dec-03 00:00N 25°47' W 080°11'0 0.0
2017-Dec-02 23:24N 25°47' W 080°11'0 0.0
2017-Dec-02 23:00N 25°47' W 080°11'0 0.0
2017-Dec-02 22:30N 25°47' W 080°11'0 0.0
2017-Dec-02 22:00N 25°47' W 080°11'0 0.0
2017-Dec-02 21:27N 25°47' W 080°11'0 0.0
2017-Dec-02 20:54N 25°47' W 080°11'0 0.0
2017-Dec-02 20:30N 25°47' W 080°11'0 0.0
2017-Dec-02 20:00N 25°47' W 080°11'0 0.0
2017-Dec-02 19:30N 25°47' W 080°11'0 0.0
2017-Dec-02 19:00N 25°47' W 080°11'0 0.0
2017-Dec-02 18:30N 25°47' W 080°11'0 0.0
2017-Dec-02 17:59N 25°47' W 080°11'0 0.0
2017-Dec-02 17:27N 25°47' W 080°11'0 0.0
2017-Dec-02 17:00N 25°47' W 080°11'0 0.0
2017-Dec-02 16:26N 25°47' W 080°11'0 0.0
2017-Dec-02 15:57N 25°47' W 080°11'0 0.0
2017-Dec-02 15:30N 25°47' W 080°11'0 0.0
2017-Dec-02 14:57N 25°47' W 080°11'0 0.0
2017-Dec-02 14:30N 25°47' W 080°11'0 0.0
2017-Dec-02 14:00N 25°47' W 080°11'0 0.0
2017-Dec-02 13:29N 25°47' W 080°11'0 0.0
2017-Dec-02 12:57N 25°47' W 080°11'0 0.0
2017-Dec-02 12:30N 25°47' W 080°11'0 0.0
2017-Dec-02 11:59N 25°47' W 080°11'0 0.0
2017-Dec-02 11:30N 25°47' W 080°11'0 0.0
2017-Dec-02 11:00N 25°47' W 080°11'0 0.0
2017-Dec-02 10:30N 25°47' W 080°11'0 0.0
2017-Dec-02 09:59N 25°47' W 080°11'0 0.0
2017-Dec-02 09:27N 25°47' W 080°11'0 0.0
2017-Dec-02 09:00N 25°47' W 080°11'0 0.0
2017-Dec-02 08:27N 25°47' W 080°11'0 0.0
2017-Dec-02 07:56N 25°47' W 080°11'0 0.0
2017-Dec-02 07:27N 25°47' W 080°11'0 0.0
2017-Dec-02 06:57N 25°47' W 080°11'0 0.0
2017-Dec-02 06:26N 25°47' W 080°11'0 0.0
2017-Dec-02 05:59N 25°47' W 080°11'0 0.0
2017-Dec-02 05:29N 25°47' W 080°11'0 0.0
2017-Dec-02 04:56N 25°47' W 080°11'0 0.0
2017-Dec-02 04:29N 25°47' W 080°11'0 0.0
2017-Dec-02 04:00N 25°47' W 080°11'0 0.0
2017-Dec-02 03:29N 25°47' W 080°11'0 0.0
2017-Dec-02 02:59N 25°47' W 080°11'0 0.0
2017-Dec-02 02:26N 25°47' W 080°11'0 0.0
2017-Dec-02 01:59N 25°47' W 080°11'0 0.0
2017-Dec-02 01:30N 25°47' W 080°11'0 0.0
2017-Dec-02 00:59N 25°47' W 080°11'0 0.0
2017-Dec-02 00:29N 25°47' W 080°11'0 0.0
2017-Dec-01 23:59N 25°47' W 080°11'0 0.0
2017-Dec-01 23:26N 25°47' W 080°11'0 0.0
2017-Dec-01 23:00N 25°47' W 080°11'0 0.0
2017-Dec-01 22:29N 25°47' W 080°11'0 0.0
2017-Dec-01 21:59N 25°47' W 080°11'0 0.0
2017-Dec-01 21:29N 25°47' W 080°11'0 0.0
2017-Dec-01 20:59N 25°47' W 080°11'0 0.0
2017-Dec-01 20:29N 25°47' W 080°11'0 0.0
2017-Dec-01 19:59N 25°47' W 080°11'0 0.0
2017-Dec-01 19:29N 25°47' W 080°11'0 0.0
2017-Dec-01 18:59N 25°47' W 080°11'0 0.0
2017-Dec-01 18:29N 25°47' W 080°11'0 0.0
2017-Dec-01 17:54N 25°47' W 080°11'0 0.0
2017-Dec-01 17:14N 25°47' W 080°11'0 0.0
2017-Dec-01 16:59N 25°47' W 080°11'0 0.0
2017-Dec-01 16:29N 25°47' W 080°11'0 0.0
2017-Dec-01 15:59N 25°47' W 080°11'0 0.0
2017-Dec-01 15:29N 25°47' W 080°11'0 0.0
2017-Dec-01 14:53N 25°47' W 080°11'0 0.0
2017-Dec-01 14:30N 25°47' W 080°11'0 0.0
2017-Dec-01 13:59N 25°47' W 080°11'0 0.0
2017-Dec-01 13:26N 25°47' W 080°11'0 0.0
2017-Dec-01 12:59N 25°47' W 080°11'0 0.0
2017-Dec-01 12:26N 25°47' W 080°11'0 0.0
2017-Dec-01 11:59N 25°47' W 080°11'0 0.0
2017-Dec-01 11:29N 25°47' W 080°11'0 0.0
2017-Dec-01 10:59N 25°47' W 080°11'0 0.0
2017-Dec-01 10:29N 25°47' W 080°11'0 0.0
2017-Dec-01 09:59N 25°47' W 080°11'0 0.0
2017-Dec-01 09:29N 25°47' W 080°11'0 0.0
2017-Dec-01 08:59N 25°47' W 080°11'0 0.0
2017-Dec-01 08:29N 25°47' W 080°11'0 0.0
2017-Dec-01 07:47N 25°47' W 080°11'0 0.0
2017-Dec-01 07:29N 25°47' W 080°11'0 0.0
2017-Dec-01 06:59N 25°47' W 080°11'0 0.0
2017-Dec-01 06:23N 25°47' W 080°11'0 0.0
2017-Dec-01 05:53N 25°47' W 080°11'0 0.0
2017-Dec-01 05:29N 25°47' W 080°11'0 0.0
2017-Dec-01 04:56N 25°47' W 080°11'0 0.0
2017-Dec-01 04:29N 25°47' W 080°11'0 0.0
2017-Dec-01 03:59N 25°47' W 080°11'0 0.0
2017-Dec-01 03:29N 25°47' W 080°11'0 0.0
2017-Dec-01 02:59N 25°47' W 080°11'0 0.0
2017-Dec-01 02:26N 25°47' W 080°11'0 0.0
2017-Dec-01 01:59N 25°47' W 080°11'0 0.0
2017-Dec-01 01:29N 25°47' W 080°11'0 0.0
2017-Dec-01 00:59N 25°47' W 080°11'0 0.0
2017-Dec-01 00:29N 25°47' W 080°11'  

Dump ship's entire track history